sensor_id;sensor_type;location;lat;lon;timestamp;P1;durP1;ratioP1;P2;durP2;ratioP2
14907;SDS011;7545;52.092;7.006;2023-06-10T00:00:47;5.47;;;3.47;;
14907;SDS011;7545;52.092;7.006;2023-06-10T00:03:12;6.80;;;3.75;;
14907;SDS011;7545;52.092;7.006;2023-06-10T00:05:39;6.72;;;3.50;;
14907;SDS011;7545;52.092;7.006;2023-06-10T00:08:05;7.00;;;3.33;;
14907;SDS011;7545;52.092;7.006;2023-06-10T00:10:36;4.13;;;3.10;;
14907;SDS011;7545;52.092;7.006;2023-06-10T00:13:03;6.95;;;3.35;;
14907;SDS011;7545;52.092;7.006;2023-06-10T00:15:30;7.72;;;3.80;;
14907;SDS011;7545;52.092;7.006;2023-06-10T00:17:56;5.80;;;3.50;;
14907;SDS011;7545;52.092;7.006;2023-06-10T00:20:22;6.38;;;3.38;;
14907;SDS011;7545;52.092;7.006;2023-06-10T00:22:51;4.93;;;3.10;;
14907;SDS011;7545;52.092;7.006;2023-06-10T00:25:17;7.30;;;4.10;;
14907;SDS011;7545;52.092;7.006;2023-06-10T00:27:43;8.55;;;3.88;;
14907;SDS011;7545;52.092;7.006;2023-06-10T00:30:09;8.05;;;3.65;;
14907;SDS011;7545;52.092;7.006;2023-06-10T00:32:35;5.03;;;3.65;;
14907;SDS011;7545;52.092;7.006;2023-06-10T00:35:02;3.88;;;3.25;;
14907;SDS011;7545;52.092;7.006;2023-06-10T00:37:28;5.72;;;4.05;;
14907;SDS011;7545;52.092;7.006;2023-06-10T00:39:55;5.38;;;3.60;;
14907;SDS011;7545;52.092;7.006;2023-06-10T00:42:21;5.82;;;3.80;;
14907;SDS011;7545;52.092;7.006;2023-06-10T00:44:49;5.25;;;3.60;;
14907;SDS011;7545;52.092;7.006;2023-06-10T00:47:15;5.55;;;3.28;;
14907;SDS011;7545;52.092;7.006;2023-06-10T00:49:41;5.22;;;3.72;;
14907;SDS011;7545;52.092;7.006;2023-06-10T00:52:07;5.70;;;3.40;;
14907;SDS011;7545;52.092;7.006;2023-06-10T00:54:35;5.22;;;3.55;;
14907;SDS011;7545;52.092;7.006;2023-06-10T00:57:01;4.95;;;3.50;;
14907;SDS011;7545;52.092;7.006;2023-06-10T00:59:28;3.90;;;3.10;;
14907;SDS011;7545;52.092;7.006;2023-06-10T01:01:54;7.10;;;3.50;;
14907;SDS011;7545;52.092;7.006;2023-06-10T01:04:21;5.60;;;4.07;;
14907;SDS011;7545;52.092;7.006;2023-06-10T01:14:57;5.65;;;4.00;;
14907;SDS011;7545;52.092;7.006;2023-06-10T01:17:24;4.78;;;2.97;;
14907;SDS011;7545;52.092;7.006;2023-06-10T01:19:56;6.85;;;4.72;;
14907;SDS011;7545;52.092;7.006;2023-06-10T01:22:23;5.38;;;3.38;;
14907;SDS011;7545;52.092;7.006;2023-06-10T01:24:50;5.35;;;3.58;;
14907;SDS011;7545;52.092;7.006;2023-06-10T01:27:17;6.22;;;4.38;;
14907;SDS011;7545;52.092;7.006;2023-06-10T01:29:49;6.10;;;3.63;;
14907;SDS011;7545;52.092;7.006;2023-06-10T01:32:26;4.40;;;3.40;;
14907;SDS011;7545;52.092;7.006;2023-06-10T01:34:56;5.40;;;3.40;;
14907;SDS011;7545;52.092;7.006;2023-06-10T01:37:22;6.88;;;3.78;;
14907;SDS011;7545;52.092;7.006;2023-06-10T01:39:50;5.30;;;3.58;;
14907;SDS011;7545;52.092;7.006;2023-06-10T01:42:17;6.53;;;3.95;;
14907;SDS011;7545;52.092;7.006;2023-06-10T01:44:43;5.45;;;3.60;;
14907;SDS011;7545;52.092;7.006;2023-06-10T01:47:09;5.95;;;3.92;;
14907;SDS011;7545;52.092;7.006;2023-06-10T01:49:34;4.18;;;3.78;;
14907;SDS011;7545;52.092;7.006;2023-06-10T01:52:00;5.07;;;3.80;;
14907;SDS011;7545;52.092;7.006;2023-06-10T01:54:25;5.95;;;4.13;;
14907;SDS011;7545;52.092;7.006;2023-06-10T01:56:51;5.18;;;3.90;;
14907;SDS011;7545;52.092;7.006;2023-06-10T01:59:17;5.65;;;3.30;;
14907;SDS011;7545;52.092;7.006;2023-06-10T02:01:42;5.30;;;3.63;;
14907;SDS011;7545;52.092;7.006;2023-06-10T02:04:08;8.65;;;3.95;;
14907;SDS011;7545;52.092;7.006;2023-06-10T02:06:33;10.63;;;3.85;;
14907;SDS011;7545;52.092;7.006;2023-06-10T02:09:00;7.03;;;4.10;;
14907;SDS011;7545;52.092;7.006;2023-06-10T02:11:26;8.35;;;4.95;;
14907;SDS011;7545;52.092;7.006;2023-06-10T02:13:51;6.70;;;3.63;;
14907;SDS011;7545;52.092;7.006;2023-06-10T02:16:17;5.10;;;3.50;;
14907;SDS011;7545;52.092;7.006;2023-06-10T02:18:43;6.20;;;4.10;;
14907;SDS011;7545;52.092;7.006;2023-06-10T02:21:09;5.88;;;4.20;;
14907;SDS011;7545;52.092;7.006;2023-06-10T02:23:35;5.82;;;3.83;;
14907;SDS011;7545;52.092;7.006;2023-06-10T02:26:01;6.72;;;4.20;;
14907;SDS011;7545;52.092;7.006;2023-06-10T02:28:27;5.63;;;3.75;;
14907;SDS011;7545;52.092;7.006;2023-06-10T02:30:53;4.45;;;3.55;;
14907;SDS011;7545;52.092;7.006;2023-06-10T02:33:18;8.85;;;4.60;;
14907;SDS011;7545;52.092;7.006;2023-06-10T02:35:44;4.55;;;3.67;;
14907;SDS011;7545;52.092;7.006;2023-06-10T02:38:10;4.63;;;3.75;;
14907;SDS011;7545;52.092;7.006;2023-06-10T02:40:36;4.72;;;3.65;;
14907;SDS011;7545;52.092;7.006;2023-06-10T02:43:02;6.28;;;4.07;;
14907;SDS011;7545;52.092;7.006;2023-06-10T02:45:27;6.28;;;3.95;;
14907;SDS011;7545;52.092;7.006;2023-06-10T02:47:53;9.48;;;4.25;;
14907;SDS011;7545;52.092;7.006;2023-06-10T02:50:18;8.35;;;4.68;;
14907;SDS011;7545;52.092;7.006;2023-06-10T02:52:44;8.48;;;4.40;;
14907;SDS011;7545;52.092;7.006;2023-06-10T02:55:10;5.70;;;3.83;;
14907;SDS011;7545;52.092;7.006;2023-06-10T02:57:35;6.25;;;4.15;;
14907;SDS011;7545;52.092;7.006;2023-06-10T03:00:01;5.28;;;4.15;;
14907;SDS011;7545;52.092;7.006;2023-06-10T03:02:29;4.97;;;4.15;;
14907;SDS011;7545;52.092;7.006;2023-06-10T03:04:56;8.77;;;3.50;;
14907;SDS011;7545;52.092;7.006;2023-06-10T03:07:23;8.18;;;4.68;;
14907;SDS011;7545;52.092;7.006;2023-06-10T03:09:49;12.07;;;4.80;;
14907;SDS011;7545;52.092;7.006;2023-06-10T03:15:37;5.97;;;3.88;;
14907;SDS011;7545;52.092;7.006;2023-06-10T03:18:06;7.18;;;4.50;;
14907;SDS011;7545;52.092;7.006;2023-06-10T03:20:32;5.43;;;4.40;;
14907;SDS011;7545;52.092;7.006;2023-06-10T03:23:02;6.63;;;4.65;;
14907;SDS011;7545;52.092;7.006;2023-06-10T03:25:31;6.70;;;4.25;;
14907;SDS011;7545;52.092;7.006;2023-06-10T03:27:57;6.15;;;3.88;;
14907;SDS011;7545;52.092;7.006;2023-06-10T03:30:24;9.20;;;4.53;;
14907;SDS011;7545;52.092;7.006;2023-06-10T03:32:49;9.15;;;4.35;;
14907;SDS011;7545;52.092;7.006;2023-06-10T03:35:15;8.68;;;3.97;;
14907;SDS011;7545;52.092;7.006;2023-06-10T03:37:40;7.25;;;3.78;;
14907;SDS011;7545;52.092;7.006;2023-06-10T03:40:07;7.28;;;3.85;;
14907;SDS011;7545;52.092;7.006;2023-06-10T03:42:33;6.97;;;4.72;;
14907;SDS011;7545;52.092;7.006;2023-06-10T03:44:59;4.53;;;3.67;;
14907;SDS011;7545;52.092;7.006;2023-06-10T03:47:25;8.32;;;4.35;;
14907;SDS011;7545;52.092;7.006;2023-06-10T03:49:51;6.57;;;4.75;;
14907;SDS011;7545;52.092;7.006;2023-06-10T03:52:18;5.15;;;3.80;;
14907;SDS011;7545;52.092;7.006;2023-06-10T03:54:43;8.05;;;4.45;;
14907;SDS011;7545;52.092;7.006;2023-06-10T03:57:09;8.48;;;3.80;;
14907;SDS011;7545;52.092;7.006;2023-06-10T03:59:35;6.00;;;4.15;;
14907;SDS011;7545;52.092;7.006;2023-06-10T04:02:01;6.82;;;3.80;;
14907;SDS011;7545;52.092;7.006;2023-06-10T04:04:27;9.18;;;4.78;;
14907;SDS011;7545;52.092;7.006;2023-06-10T04:06:52;7.35;;;4.72;;
14907;SDS011;7545;52.092;7.006;2023-06-10T04:09:18;6.65;;;4.13;;
14907;SDS011;7545;52.092;7.006;2023-06-10T04:11:43;7.22;;;4.40;;
14907;SDS011;7545;52.092;7.006;2023-06-10T04:14:12;4.93;;;4.18;;
14907;SDS011;7545;52.092;7.006;2023-06-10T04:16:38;4.95;;;4.05;;
14907;SDS011;7545;52.092;7.006;2023-06-10T04:19:04;6.13;;;3.95;;
14907;SDS011;7545;52.092;7.006;2023-06-10T04:21:30;7.30;;;3.63;;
14907;SDS011;7545;52.092;7.006;2023-06-10T04:23:55;8.82;;;4.80;;
14907;SDS011;7545;52.092;7.006;2023-06-10T04:26:21;7.30;;;4.63;;
14907;SDS011;7545;52.092;7.006;2023-06-10T04:28:47;5.60;;;3.85;;
14907;SDS011;7545;52.092;7.006;2023-06-10T04:31:12;8.98;;;4.07;;
14907;SDS011;7545;52.092;7.006;2023-06-10T04:33:38;7.57;;;4.47;;
14907;SDS011;7545;52.092;7.006;2023-06-10T04:36:03;8.68;;;3.85;;
14907;SDS011;7545;52.092;7.006;2023-06-10T04:38:31;6.05;;;4.13;;
14907;SDS011;7545;52.092;7.006;2023-06-10T04:40:57;7.93;;;4.28;;
14907;SDS011;7545;52.092;7.006;2023-06-10T04:43:22;6.07;;;3.72;;
14907;SDS011;7545;52.092;7.006;2023-06-10T04:45:48;5.80;;;4.20;;
14907;SDS011;7545;52.092;7.006;2023-06-10T04:48:14;5.10;;;4.22;;
14907;SDS011;7545;52.092;7.006;2023-06-10T04:50:40;8.65;;;4.68;;
14907;SDS011;7545;52.092;7.006;2023-06-10T04:53:05;6.82;;;3.72;;
14907;SDS011;7545;52.092;7.006;2023-06-10T04:55:32;7.90;;;4.93;;
14907;SDS011;7545;52.092;7.006;2023-06-10T04:57:59;7.22;;;3.67;;
14907;SDS011;7545;52.092;7.006;2023-06-10T05:00:24;9.45;;;4.65;;
14907;SDS011;7545;52.092;7.006;2023-06-10T05:02:50;7.85;;;3.65;;
14907;SDS011;7545;52.092;7.006;2023-06-10T05:05:17;6.43;;;4.00;;
14907;SDS011;7545;52.092;7.006;2023-06-10T05:07:42;4.57;;;4.05;;
14907;SDS011;7545;52.092;7.006;2023-06-10T05:10:08;7.25;;;4.13;;
14907;SDS011;7545;52.092;7.006;2023-06-10T05:12:34;8.35;;;4.75;;
14907;SDS011;7545;52.092;7.006;2023-06-10T05:15:00;6.07;;;4.30;;
14907;SDS011;7545;52.092;7.006;2023-06-10T05:17:26;6.57;;;5.15;;
14907;SDS011;7545;52.092;7.006;2023-06-10T05:19:53;6.35;;;3.85;;
14907;SDS011;7545;52.092;7.006;2023-06-10T05:22:18;4.13;;;3.20;;
14907;SDS011;7545;52.092;7.006;2023-06-10T05:24:44;7.45;;;4.07;;
14907;SDS011;7545;52.092;7.006;2023-06-10T05:27:10;5.05;;;3.92;;
14907;SDS011;7545;52.092;7.006;2023-06-10T05:29:36;6.57;;;3.67;;
14907;SDS011;7545;52.092;7.006;2023-06-10T05:32:02;5.72;;;3.72;;
14907;SDS011;7545;52.092;7.006;2023-06-10T05:34:31;6.28;;;3.47;;
14907;SDS011;7545;52.092;7.006;2023-06-10T05:36:57;6.47;;;3.83;;
14907;SDS011;7545;52.092;7.006;2023-06-10T05:39:23;6.65;;;3.47;;
14907;SDS011;7545;52.092;7.006;2023-06-10T05:41:48;5.53;;;3.63;;
14907;SDS011;7545;52.092;7.006;2023-06-10T05:44:14;4.32;;;3.58;;
14907;SDS011;7545;52.092;7.006;2023-06-10T05:46:40;7.20;;;3.38;;
14907;SDS011;7545;52.092;7.006;2023-06-10T05:49:05;5.07;;;3.67;;
14907;SDS011;7545;52.092;7.006;2023-06-10T05:51:31;5.30;;;3.70;;
14907;SDS011;7545;52.092;7.006;2023-06-10T05:53:57;5.90;;;3.80;;
14907;SDS011;7545;52.092;7.006;2023-06-10T05:56:22;6.22;;;3.67;;
14907;SDS011;7545;52.092;7.006;2023-06-10T05:58:48;6.15;;;4.10;;
14907;SDS011;7545;52.092;7.006;2023-06-10T06:01:14;6.70;;;5.00;;
14907;SDS011;7545;52.092;7.006;2023-06-10T06:03:40;9.40;;;4.55;;
14907;SDS011;7545;52.092;7.006;2023-06-10T06:06:06;6.18;;;4.15;;
14907;SDS011;7545;52.092;7.006;2023-06-10T06:08:31;5.75;;;3.90;;
14907;SDS011;7545;52.092;7.006;2023-06-10T06:10:57;4.55;;;3.45;;
14907;SDS011;7545;52.092;7.006;2023-06-10T06:13:23;5.25;;;3.33;;
14907;SDS011;7545;52.092;7.006;2023-06-10T06:15:48;7.63;;;3.38;;
14907;SDS011;7545;52.092;7.006;2023-06-10T06:18:15;5.28;;;3.38;;
14907;SDS011;7545;52.092;7.006;2023-06-10T06:20:40;4.00;;;3.30;;
14907;SDS011;7545;52.092;7.006;2023-06-10T06:23:06;5.85;;;3.60;;
14907;SDS011;7545;52.092;7.006;2023-06-10T06:25:33;6.05;;;3.45;;
14907;SDS011;7545;52.092;7.006;2023-06-10T06:28:00;3.67;;;3.17;;
14907;SDS011;7545;52.092;7.006;2023-06-10T06:30:26;6.15;;;3.45;;
14907;SDS011;7545;52.092;7.006;2023-06-10T06:32:52;4.70;;;3.42;;
14907;SDS011;7545;52.092;7.006;2023-06-10T06:35:18;12.68;;;3.40;;
14907;SDS011;7545;52.092;7.006;2023-06-10T06:37:43;4.75;;;3.35;;
14907;SDS011;7545;52.092;7.006;2023-06-10T06:40:09;7.50;;;3.33;;
14907;SDS011;7545;52.092;7.006;2023-06-10T06:42:35;5.93;;;4.22;;
14907;SDS011;7545;52.092;7.006;2023-06-10T06:45:01;5.35;;;2.97;;
14907;SDS011;7545;52.092;7.006;2023-06-10T06:47:26;5.65;;;3.53;;
14907;SDS011;7545;52.092;7.006;2023-06-10T06:49:52;5.20;;;3.15;;
14907;SDS011;7545;52.092;7.006;2023-06-10T06:52:17;4.68;;;3.22;;
14907;SDS011;7545;52.092;7.006;2023-06-10T06:54:44;6.13;;;3.45;;
14907;SDS011;7545;52.092;7.006;2023-06-10T06:57:09;6.20;;;3.35;;
14907;SDS011;7545;52.092;7.006;2023-06-10T06:59:35;3.83;;;2.85;;
14907;SDS011;7545;52.092;7.006;2023-06-10T07:02:01;6.30;;;2.78;;
14907;SDS011;7545;52.092;7.006;2023-06-10T07:04:27;4.43;;;3.30;;
14907;SDS011;7545;52.092;7.006;2023-06-10T07:06:53;5.57;;;3.47;;
14907;SDS011;7545;52.092;7.006;2023-06-10T07:09:19;6.38;;;3.55;;
14907;SDS011;7545;52.092;7.006;2023-06-10T07:11:45;6.40;;;3.15;;
14907;SDS011;7545;52.092;7.006;2023-06-10T07:14:10;5.38;;;3.20;;
14907;SDS011;7545;52.092;7.006;2023-06-10T07:16:36;3.63;;;2.72;;
14907;SDS011;7545;52.092;7.006;2023-06-10T07:19:01;4.35;;;3.20;;
14907;SDS011;7545;52.092;7.006;2023-06-10T07:21:27;3.67;;;2.75;;
14907;SDS011;7545;52.092;7.006;2023-06-10T07:23:55;4.78;;;2.80;;
14907;SDS011;7545;52.092;7.006;2023-06-10T07:26:23;6.13;;;3.25;;
14907;SDS011;7545;52.092;7.006;2023-06-10T07:28:49;6.05;;;3.05;;
14907;SDS011;7545;52.092;7.006;2023-06-10T07:31:14;4.80;;;3.13;;
14907;SDS011;7545;52.092;7.006;2023-06-10T07:33:40;4.93;;;2.83;;
14907;SDS011;7545;52.092;7.006;2023-06-10T07:36:06;6.25;;;3.08;;
14907;SDS011;7545;52.092;7.006;2023-06-10T07:38:32;5.68;;;2.92;;
14907;SDS011;7545;52.092;7.006;2023-06-10T07:40:58;5.25;;;2.85;;
14907;SDS011;7545;52.092;7.006;2023-06-10T07:43:23;7.80;;;3.08;;
14907;SDS011;7545;52.092;7.006;2023-06-10T07:45:49;7.05;;;2.60;;
14907;SDS011;7545;52.092;7.006;2023-06-10T07:48:15;3.92;;;2.75;;
14907;SDS011;7545;52.092;7.006;2023-06-10T07:50:41;3.17;;;2.45;;
14907;SDS011;7545;52.092;7.006;2023-06-10T07:53:06;5.50;;;2.63;;
14907;SDS011;7545;52.092;7.006;2023-06-10T07:55:32;6.85;;;3.03;;
14907;SDS011;7545;52.092;7.006;2023-06-10T07:57:58;4.82;;;2.63;;
14907;SDS011;7545;52.092;7.006;2023-06-10T08:00:23;3.67;;;2.45;;
14907;SDS011;7545;52.092;7.006;2023-06-10T08:02:49;3.63;;;2.63;;
14907;SDS011;7545;52.092;7.006;2023-06-10T08:05:15;5.93;;;2.90;;
14907;SDS011;7545;52.092;7.006;2023-06-10T08:07:41;5.57;;;2.53;;
14907;SDS011;7545;52.092;7.006;2023-06-10T08:10:07;6.63;;;2.60;;
14907;SDS011;7545;52.092;7.006;2023-06-10T08:12:33;3.40;;;2.88;;
14907;SDS011;7545;52.092;7.006;2023-06-10T08:14:59;2.78;;;2.50;;
14907;SDS011;7545;52.092;7.006;2023-06-10T08:17:25;2.65;;;2.13;;
14907;SDS011;7545;52.092;7.006;2023-06-10T08:19:51;4.05;;;2.70;;
14907;SDS011;7545;52.092;7.006;2023-06-10T08:22:17;5.97;;;3.42;;
14907;SDS011;7545;52.092;7.006;2023-06-10T08:24:43;4.22;;;3.25;;
14907;SDS011;7545;52.092;7.006;2023-06-10T08:27:08;3.47;;;2.63;;
14907;SDS011;7545;52.092;7.006;2023-06-10T08:29:35;3.45;;;2.72;;
14907;SDS011;7545;52.092;7.006;2023-06-10T08:32:00;3.97;;;2.30;;
14907;SDS011;7545;52.092;7.006;2023-06-10T08:34:26;3.80;;;3.15;;
14907;SDS011;7545;52.092;7.006;2023-06-10T08:36:52;5.43;;;2.97;;
14907;SDS011;7545;52.092;7.006;2023-06-10T08:39:20;3.33;;;2.58;;
14907;SDS011;7545;52.092;7.006;2023-06-10T08:42:00;3.53;;;2.42;;
14907;SDS011;7545;52.092;7.006;2023-06-10T08:44:32;3.95;;;2.60;;
14907;SDS011;7545;52.092;7.006;2023-06-10T08:47:04;3.90;;;3.00;;
14907;SDS011;7545;52.092;7.006;2023-06-10T08:49:34;8.07;;;2.78;;
14907;SDS011;7545;52.092;7.006;2023-06-10T08:52:03;4.65;;;2.40;;
14907;SDS011;7545;52.092;7.006;2023-06-10T08:54:32;6.35;;;3.53;;
14907;SDS011;7545;52.092;7.006;2023-06-10T08:57:02;6.05;;;2.65;;
14907;SDS011;7545;52.092;7.006;2023-06-10T08:59:30;4.05;;;2.60;;
14907;SDS011;7545;52.092;7.006;2023-06-10T09:01:56;3.25;;;2.42;;
14907;SDS011;7545;52.092;7.006;2023-06-10T09:04:23;3.47;;;2.90;;
14907;SDS011;7545;52.092;7.006;2023-06-10T09:06:49;3.78;;;2.75;;
14907;SDS011;7545;52.092;7.006;2023-06-10T09:09:16;2.83;;;2.17;;
14907;SDS011;7545;52.092;7.006;2023-06-10T09:11:43;3.53;;;2.47;;
14907;SDS011;7545;52.092;7.006;2023-06-10T09:14:09;5.75;;;2.33;;
14907;SDS011;7545;52.092;7.006;2023-06-10T09:16:34;4.70;;;2.63;;
14907;SDS011;7545;52.092;7.006;2023-06-10T09:19:00;5.00;;;2.88;;
14907;SDS011;7545;52.092;7.006;2023-06-10T09:21:32;3.78;;;2.58;;
14907;SDS011;7545;52.092;7.006;2023-06-10T09:23:58;3.45;;;2.70;;
14907;SDS011;7545;52.092;7.006;2023-06-10T09:26:27;3.30;;;2.83;;
14907;SDS011;7545;52.092;7.006;2023-06-10T09:28:57;3.90;;;2.78;;
14907;SDS011;7545;52.092;7.006;2023-06-10T09:31:30;3.50;;;2.45;;
14907;SDS011;7545;52.092;7.006;2023-06-10T09:34:09;3.10;;;2.72;;
14907;SDS011;7545;52.092;7.006;2023-06-10T09:36:36;3.95;;;3.47;;
14907;SDS011;7545;52.092;7.006;2023-06-10T09:39:03;4.63;;;2.38;;
14907;SDS011;7545;52.092;7.006;2023-06-10T09:41:33;6.65;;;2.85;;
14907;SDS011;7545;52.092;7.006;2023-06-10T09:44:00;4.88;;;2.50;;
14907;SDS011;7545;52.092;7.006;2023-06-10T09:46:25;4.47;;;2.78;;
14907;SDS011;7545;52.092;7.006;2023-06-10T09:48:57;5.00;;;2.67;;
14907;SDS011;7545;52.092;7.006;2023-06-10T09:51:23;5.82;;;3.25;;
14907;SDS011;7545;52.092;7.006;2023-06-10T09:53:50;3.83;;;2.65;;
14907;SDS011;7545;52.092;7.006;2023-06-10T09:56:16;3.40;;;2.60;;
14907;SDS011;7545;52.092;7.006;2023-06-10T09:58:42;3.28;;;2.67;;
14907;SDS011;7545;52.092;7.006;2023-06-10T10:01:11;2.95;;;2.60;;
14907;SDS011;7545;52.092;7.006;2023-06-10T10:03:49;3.53;;;2.60;;
14907;SDS011;7545;52.092;7.006;2023-06-10T10:06:16;3.15;;;2.63;;
14907;SDS011;7545;52.092;7.006;2023-06-10T10:08:42;4.03;;;2.92;;
14907;SDS011;7545;52.092;7.006;2023-06-10T10:11:08;5.05;;;2.80;;
14907;SDS011;7545;52.092;7.006;2023-06-10T10:13:35;4.97;;;3.35;;
14907;SDS011;7545;52.092;7.006;2023-06-10T10:16:04;6.15;;;2.83;;
14907;SDS011;7545;52.092;7.006;2023-06-10T10:18:34;5.72;;;3.50;;
14907;SDS011;7545;52.092;7.006;2023-06-10T10:21:04;4.65;;;2.70;;
14907;SDS011;7545;52.092;7.006;2023-06-10T10:24:21;3.88;;;2.63;;
14907;SDS011;7545;52.092;7.006;2023-06-10T10:26:21;5.20;;;2.42;;
14907;SDS011;7545;52.092;7.006;2023-06-10T10:28:58;4.25;;;2.90;;
14907;SDS011;7545;52.092;7.006;2023-06-10T10:31:38;5.10;;;3.05;;
14907;SDS011;7545;52.092;7.006;2023-06-10T10:34:07;3.67;;;2.67;;
14907;SDS011;7545;52.092;7.006;2023-06-10T10:36:37;4.03;;;2.92;;
14907;SDS011;7545;52.092;7.006;2023-06-10T10:39:04;4.10;;;2.78;;
14907;SDS011;7545;52.092;7.006;2023-06-10T10:41:30;3.70;;;3.10;;
14907;SDS011;7545;52.092;7.006;2023-06-10T10:43:57;5.43;;;2.75;;
14907;SDS011;7545;52.092;7.006;2023-06-10T10:46:24;5.55;;;3.22;;
14907;SDS011;7545;52.092;7.006;2023-06-10T10:48:51;3.38;;;2.72;;
14907;SDS011;7545;52.092;7.006;2023-06-10T10:51:19;4.30;;;2.75;;
14907;SDS011;7545;52.092;7.006;2023-06-10T10:54:06;4.00;;;2.72;;
14907;SDS011;7545;52.092;7.006;2023-06-10T10:56:38;7.35;;;3.45;;
14907;SDS011;7545;52.092;7.006;2023-06-10T10:59:04;5.10;;;3.00;;
14907;SDS011;7545;52.092;7.006;2023-06-10T11:01:43;4.13;;;3.00;;
14907;SDS011;7545;52.092;7.006;2023-06-10T11:04:11;2.63;;;2.25;;
14907;SDS011;7545;52.092;7.006;2023-06-10T11:06:37;5.60;;;2.75;;
14907;SDS011;7545;52.092;7.006;2023-06-10T11:11:52;3.78;;;2.90;;
14907;SDS011;7545;52.092;7.006;2023-06-10T11:14:26;6.20;;;2.53;;
14907;SDS011;7545;52.092;7.006;2023-06-10T11:16:57;5.85;;;3.10;;
14907;SDS011;7545;52.092;7.006;2023-06-10T11:22:05;4.70;;;3.20;;
14907;SDS011;7545;52.092;7.006;2023-06-10T11:24:32;4.60;;;2.90;;
14907;SDS011;7545;52.092;7.006;2023-06-10T11:27:32;5.90;;;3.08;;
14907;SDS011;7545;52.092;7.006;2023-06-10T11:29:57;4.53;;;2.70;;
14907;SDS011;7545;52.092;7.006;2023-06-10T11:32:42;5.07;;;3.30;;
14907;SDS011;7545;52.092;7.006;2023-06-10T11:35:08;5.30;;;2.78;;
14907;SDS011;7545;52.092;7.006;2023-06-10T11:37:34;3.40;;;2.50;;
14907;SDS011;7545;52.092;7.006;2023-06-10T11:40:00;4.07;;;2.83;;
14907;SDS011;7545;52.092;7.006;2023-06-10T11:42:27;4.43;;;3.13;;
14907;SDS011;7545;52.092;7.006;2023-06-10T11:44:53;3.50;;;2.97;;
14907;SDS011;7545;52.092;7.006;2023-06-10T11:47:20;5.43;;;3.10;;
14907;SDS011;7545;52.092;7.006;2023-06-10T11:49:55;5.05;;;2.97;;
14907;SDS011;7545;52.092;7.006;2023-06-10T11:52:28;4.47;;;3.20;;
14907;SDS011;7545;52.092;7.006;2023-06-10T11:54:57;4.28;;;2.67;;
14907;SDS011;7545;52.092;7.006;2023-06-10T11:57:22;3.28;;;2.97;;
14907;SDS011;7545;52.092;7.006;2023-06-10T11:59:48;5.00;;;3.17;;
14907;SDS011;7545;52.092;7.006;2023-06-10T12:02:17;4.50;;;2.97;;
14907;SDS011;7545;52.092;7.006;2023-06-10T12:04:44;6.53;;;3.38;;
14907;SDS011;7545;52.092;7.006;2023-06-10T12:07:14;4.93;;;3.35;;
14907;SDS011;7545;52.092;7.006;2023-06-10T12:09:43;5.65;;;3.20;;
14907;SDS011;7545;52.092;7.006;2023-06-10T12:12:09;5.82;;;3.58;;
14907;SDS011;7545;52.092;7.006;2023-06-10T12:17:23;5.28;;;2.90;;
14907;SDS011;7545;52.092;7.006;2023-06-10T12:19:54;3.65;;;2.78;;
14907;SDS011;7545;52.092;7.006;2023-06-10T12:22:20;2.95;;;2.53;;
14907;SDS011;7545;52.092;7.006;2023-06-10T12:24:58;3.95;;;3.50;;
14907;SDS011;7545;52.092;7.006;2023-06-10T12:27:24;6.53;;;3.25;;
14907;SDS011;7545;52.092;7.006;2023-06-10T12:29:51;3.90;;;3.28;;
14907;SDS011;7545;52.092;7.006;2023-06-10T12:32:18;5.65;;;3.10;;
14907;SDS011;7545;52.092;7.006;2023-06-10T12:34:45;4.88;;;3.33;;
14907;SDS011;7545;52.092;7.006;2023-06-10T12:37:11;3.35;;;3.05;;
14907;SDS011;7545;52.092;7.006;2023-06-10T12:39:41;6.32;;;2.80;;
14907;SDS011;7545;52.092;7.006;2023-06-10T12:42:11;5.35;;;3.58;;
14907;SDS011;7545;52.092;7.006;2023-06-10T12:44:40;6.25;;;3.25;;
14907;SDS011;7545;52.092;7.006;2023-06-10T12:47:12;2.72;;;2.45;;
14907;SDS011;7545;52.092;7.006;2023-06-10T12:49:41;4.10;;;2.80;;
14907;SDS011;7545;52.092;7.006;2023-06-10T12:52:06;3.90;;;3.03;;
14907;SDS011;7545;52.092;7.006;2023-06-10T12:54:32;6.90;;;3.00;;
14907;SDS011;7545;52.092;7.006;2023-06-10T12:56:58;7.15;;;3.30;;
14907;SDS011;7545;52.092;7.006;2023-06-10T12:59:24;5.43;;;3.08;;
14907;SDS011;7545;52.092;7.006;2023-06-10T13:01:53;5.20;;;3.17;;
14907;SDS011;7545;52.092;7.006;2023-06-10T13:04:19;4.13;;;2.78;;
14907;SDS011;7545;52.092;7.006;2023-06-10T13:06:46;4.18;;;2.90;;
14907;SDS011;7545;52.092;7.006;2023-06-10T13:09:13;3.30;;;3.00;;
14907;SDS011;7545;52.092;7.006;2023-06-10T13:11:39;3.47;;;2.55;;
14907;SDS011;7545;52.092;7.006;2023-06-10T13:14:05;3.47;;;2.90;;
14907;SDS011;7545;52.092;7.006;2023-06-10T13:16:32;3.10;;;2.80;;
14907;SDS011;7545;52.092;7.006;2023-06-10T13:18:57;3.55;;;3.00;;
14907;SDS011;7545;52.092;7.006;2023-06-10T13:21:24;5.20;;;3.05;;
14907;SDS011;7545;52.092;7.006;2023-06-10T13:23:50;3.30;;;2.88;;
14907;SDS011;7545;52.092;7.006;2023-06-10T13:26:16;3.50;;;3.20;;
14907;SDS011;7545;52.092;7.006;2023-06-10T13:28:45;3.88;;;2.88;;
14907;SDS011;7545;52.092;7.006;2023-06-10T13:31:11;3.42;;;3.05;;
14907;SDS011;7545;52.092;7.006;2023-06-10T13:33:36;5.20;;;3.35;;
14907;SDS011;7545;52.092;7.006;2023-06-10T13:36:02;3.50;;;2.95;;
14907;SDS011;7545;52.092;7.006;2023-06-10T13:38:28;4.25;;;2.80;;
14907;SDS011;7545;52.092;7.006;2023-06-10T13:40:54;6.45;;;3.00;;
14907;SDS011;7545;52.092;7.006;2023-06-10T13:43:19;4.63;;;2.90;;
14907;SDS011;7545;52.092;7.006;2023-06-10T13:45:45;4.78;;;3.20;;
14907;SDS011;7545;52.092;7.006;2023-06-10T13:48:10;3.40;;;2.83;;
14907;SDS011;7545;52.092;7.006;2023-06-10T13:50:37;5.35;;;3.17;;
14907;SDS011;7545;52.092;7.006;2023-06-10T13:53:03;3.90;;;3.15;;
14907;SDS011;7545;52.092;7.006;2023-06-10T13:55:28;5.05;;;2.72;;
14907;SDS011;7545;52.092;7.006;2023-06-10T13:57:54;3.83;;;3.00;;
14907;SDS011;7545;52.092;7.006;2023-06-10T14:00:20;3.55;;;3.17;;
14907;SDS011;7545;52.092;7.006;2023-06-10T14:02:46;6.30;;;3.45;;
14907;SDS011;7545;52.092;7.006;2023-06-10T14:05:11;4.38;;;3.10;;
14907;SDS011;7545;52.092;7.006;2023-06-10T14:07:37;5.30;;;3.05;;
14907;SDS011;7545;52.092;7.006;2023-06-10T14:10:03;4.88;;;3.10;;
14907;SDS011;7545;52.092;7.006;2023-06-10T14:12:29;4.78;;;2.97;;
14907;SDS011;7545;52.092;7.006;2023-06-10T14:14:54;5.38;;;3.08;;
14907;SDS011;7545;52.092;7.006;2023-06-10T14:17:20;4.00;;;2.95;;
14907;SDS011;7545;52.092;7.006;2023-06-10T14:19:47;4.18;;;3.30;;
14907;SDS011;7545;52.092;7.006;2023-06-10T14:22:12;5.43;;;3.33;;
14907;SDS011;7545;52.092;7.006;2023-06-10T14:24:38;5.10;;;2.80;;
14907;SDS011;7545;52.092;7.006;2023-06-10T14:27:03;5.25;;;3.38;;
14907;SDS011;7545;52.092;7.006;2023-06-10T14:29:29;4.63;;;3.42;;
14907;SDS011;7545;52.092;7.006;2023-06-10T14:31:56;4.00;;;2.85;;
14907;SDS011;7545;52.092;7.006;2023-06-10T14:34:22;5.05;;;3.60;;
14907;SDS011;7545;52.092;7.006;2023-06-10T14:36:53;4.05;;;2.95;;
14907;SDS011;7545;52.092;7.006;2023-06-10T14:39:19;4.75;;;2.90;;
14907;SDS011;7545;52.092;7.006;2023-06-10T14:41:44;5.80;;;3.13;;
14907;SDS011;7545;52.092;7.006;2023-06-10T14:44:10;3.70;;;3.08;;
14907;SDS011;7545;52.092;7.006;2023-06-10T14:46:35;4.53;;;2.90;;
14907;SDS011;7545;52.092;7.006;2023-06-10T14:49:01;3.40;;;3.05;;
14907;SDS011;7545;52.092;7.006;2023-06-10T14:51:27;5.55;;;2.88;;
14907;SDS011;7545;52.092;7.006;2023-06-10T14:53:53;3.55;;;3.17;;
14907;SDS011;7545;52.092;7.006;2023-06-10T14:56:19;3.55;;;2.88;;
14907;SDS011;7545;52.092;7.006;2023-06-10T14:58:44;5.00;;;3.33;;
14907;SDS011;7545;52.092;7.006;2023-06-10T15:01:10;3.90;;;3.50;;
14907;SDS011;7545;52.092;7.006;2023-06-10T15:03:39;8.05;;;3.63;;
14907;SDS011;7545;52.092;7.006;2023-06-10T15:06:04;4.88;;;2.92;;
14907;SDS011;7545;52.092;7.006;2023-06-10T15:08:30;3.38;;;3.08;;
14907;SDS011;7545;52.092;7.006;2023-06-10T15:10:56;4.32;;;3.53;;
14907;SDS011;7545;52.092;7.006;2023-06-10T15:13:22;6.65;;;3.28;;
14907;SDS011;7545;52.092;7.006;2023-06-10T15:15:48;4.13;;;3.72;;
14907;SDS011;7545;52.092;7.006;2023-06-10T15:18:15;3.95;;;3.35;;